createdAt,value
2023-05-19T00:00:00.296Z,101445.66
2023-05-19T00:01:02.321Z,101446.44
2023-05-19T00:02:09.094Z,101449.44
2023-05-19T00:03:13.040Z,101451.44
2023-05-19T00:04:17.820Z,101446.50
2023-05-19T00:05:20.131Z,101446.78
2023-05-19T00:06:25.385Z,101444.59
2023-05-19T00:07:31.013Z,101442.13
2023-05-19T00:08:35.462Z,101444.03
2023-05-19T00:09:37.525Z,101446.75
2023-05-19T00:10:40.706Z,101440.72
2023-05-19T00:11:42.546Z,101435.00
2023-05-19T00:12:46.250Z,101445.91
2023-05-19T00:13:49.628Z,101440.47
2023-05-19T00:14:52.917Z,101442.41
2023-05-19T00:15:54.975Z,101439.69
2023-05-19T00:16:57.988Z,101436.41
2023-05-19T00:17:59.582Z,101442.72
2023-05-19T00:19:03.936Z,101429.56
2023-05-19T00:20:08.417Z,101443.25
2023-05-19T00:21:10.986Z,101440.53
2023-05-19T00:22:12.466Z,101437.75
2023-05-19T00:23:14.921Z,101439.13
2023-05-19T00:24:16.458Z,101434.72
2023-05-19T00:25:18.932Z,101431.19
2023-05-19T00:26:22.652Z,101430.09
2023-05-19T00:27:25.130Z,101435.88
2023-05-19T00:28:26.652Z,101429.81
2023-05-19T00:29:29.530Z,101436.41
2023-05-19T00:30:31.396Z,101428.75
2023-05-19T00:31:35.083Z,101431.22
2023-05-19T00:32:36.669Z,101432.28
2023-05-19T00:33:39.166Z,101430.66
2023-05-19T00:34:40.923Z,101425.75
2023-05-19T00:35:44.716Z,101428.47
2023-05-19T00:36:46.223Z,101427.63
2023-05-19T00:37:48.848Z,101425.19
2023-05-19T00:38:51.252Z,101424.34
2023-05-19T00:39:53.714Z,101424.63
2023-05-19T00:40:55.456Z,101416.44
2023-05-19T00:41:58.192Z,101414.50
2023-05-19T00:42:59.924Z,101415.34
2023-05-19T00:44:02.517Z,101416.47
2023-05-19T00:45:04.818Z,101416.41
2023-05-19T00:46:07.784Z,101423.00
2023-05-19T00:47:09.446Z,101420.50
2023-05-19T00:48:11.906Z,101422.13
2023-05-19T00:49:13.482Z,101415.25
2023-05-19T00:50:16.209Z,101416.81
2023-05-19T00:51:20.583Z,101408.53
2023-05-19T00:52:22.184Z,101414.34
2023-05-19T00:53:25.595Z,101409.16
2023-05-19T00:54:27.481Z,101415.00
2023-05-19T00:55:32.656Z,101409.63
2023-05-19T00:56:34.203Z,101412.91
2023-05-19T00:57:37.084Z,101414.03
2023-05-19T00:58:39.272Z,101422.34
2023-05-19T00:59:41.860Z,101415.47
2023-05-19T01:00:44.278Z,101409.06
2023-05-19T01:01:49.032Z,101413.47
2023-05-19T01:02:51.176Z,101412.53
2023-05-19T01:03:56.707Z,101411.84
2023-05-19T01:04:59.548Z,101411.16
2023-05-19T01:06:04.877Z,101406.50
2023-05-19T01:07:07.955Z,101406.13
2023-05-19T01:08:10.521Z,101404.66
2023-05-19T01:09:12.293Z,101408.44
2023-05-19T01:10:14.830Z,101407.72
2023-05-19T01:11:16.310Z,101417.06
2023-05-19T01:12:18.955Z,101412.13
2023-05-19T01:13:20.774Z,101408.97
2023-05-19T01:14:23.601Z,101411.34
2023-05-19T01:15:27.531Z,101409.94
2023-05-19T01:16:32.403Z,101411.31
2023-05-19T01:17:45.803Z,101410.13
2023-05-19T01:20:13.593Z,101409.28
2023-05-19T01:21:37.626Z,101409.16
2023-05-19T01:23:00.377Z,101403.84
2023-05-19T01:24:14.296Z,101406.94
2023-05-19T01:25:45.239Z,101409.16
2023-05-19T01:27:19.583Z,101409.84
2023-05-19T01:28:32.557Z,101405.41
2023-05-19T01:29:44.195Z,101401.81
2023-05-19T01:30:52.576Z,101409.97
2023-05-19T01:32:00.313Z,101408.69
2023-05-19T01:33:06.748Z,101407.16
2023-05-19T01:34:11.632Z,101401.91
2023-05-19T01:35:15.482Z,101402.00
2023-05-19T01:36:20.115Z,101406.06
2023-05-19T01:37:21.971Z,101404.19
2023-05-19T01:38:26.074Z,101402.22
2023-05-19T01:39:28.465Z,101403.19
2023-05-19T01:40:31.883Z,101408.31
2023-05-19T01:41:34.589Z,101408.97
2023-05-19T01:42:39.982Z,101410.59
2023-05-19T01:43:42.470Z,101406.81
2023-05-19T01:44:45.562Z,101409.06
2023-05-19T01:45:49.030Z,101416.22
2023-05-19T01:46:52.026Z,101416.25
2023-05-19T01:47:56.119Z,101421.50
2023-05-19T01:48:59.533Z,101413.56
2023-05-19T01:50:01.055Z,101416.88
2023-05-19T01:51:03.660Z,101419.34
2023-05-19T01:52:05.926Z,101424.25
2023-05-19T01:53:08.628Z,101412.19
2023-05-19T01:54:10.142Z,101415.22
2023-05-19T01:55:12.706Z,101412.53
2023-05-19T01:56:19.437Z,101414.38
2023-05-19T01:57:30.073Z,101413.06
2023-05-19T01:58:40.716Z,101413.06
2023-05-19T01:59:52.176Z,101413.03
2023-05-19T02:01:03.078Z,101409.75
2023-05-19T02:02:17.308Z,101412.75
2023-05-19T02:03:40.933Z,101408.72
2023-05-19T02:04:51.739Z,101412.16
2023-05-19T02:05:55.971Z,101411.47
2023-05-19T02:07:04.532Z,101404.13
2023-05-19T02:08:13.042Z,101407.50
2023-05-19T02:09:19.556Z,101401.19
2023-05-19T02:10:27.363Z,101401.50
2023-05-19T02:11:37.842Z,101406.47
2023-05-19T02:12:40.673Z,101404.81
2023-05-19T02:13:45.474Z,101401.28
2023-05-19T02:14:51.730Z,101404.88
2023-05-19T02:15:58.804Z,101404.03
2023-05-19T02:17:00.981Z,101399.97
2023-05-19T02:18:04.701Z,101403.25
2023-05-19T02:19:06.335Z,101399.44
2023-05-19T02:20:10.038Z,101403.00
2023-05-19T02:21:13.375Z,101407.34
2023-05-19T02:22:15.959Z,101403.78
2023-05-19T02:23:17.469Z,101402.69
2023-05-19T02:24:22.735Z,101398.03
2023-05-19T02:25:24.421Z,101402.16
2023-05-19T02:26:26.960Z,101408.47
2023-05-19T02:27:28.562Z,101408.19
2023-05-19T02:28:31.013Z,101402.97
2023-05-19T02:29:32.591Z,101400.75
2023-05-19T02:30:35.193Z,101406.53
2023-05-19T02:31:38.223Z,101408.47
2023-05-19T02:32:41.084Z,101405.47
2023-05-19T02:33:43.600Z,101402.44
2023-05-19T02:34:46.137Z,101399.44
2023-05-19T02:35:47.632Z,101405.47
2023-05-19T02:36:50.661Z,101403.81
2023-05-19T02:37:52.404Z,101405.47
2023-05-19T02:38:54.883Z,101404.59
2023-05-19T02:39:56.638Z,101409.22
2023-05-19T02:40:59.061Z,101405.13
2023-05-19T02:42:00.777Z,101405.97
2023-05-19T02:43:03.439Z,101407.88
2023-05-19T02:44:05.347Z,101406.25
2023-05-19T02:45:08.803Z,101397.22
2023-05-19T02:46:10.376Z,101405.72
2023-05-19T02:47:14.496Z,101404.03
2023-05-19T02:48:16.017Z,101402.72
2023-05-19T02:49:18.509Z,101399.13
2023-05-19T02:50:20.061Z,101404.34
2023-05-19T02:51:22.481Z,101400.75
2023-05-19T02:52:23.989Z,101398.84
2023-05-19T02:53:26.535Z,101397.13
2023-05-19T02:54:28.031Z,101406.91
2023-05-19T02:55:30.473Z,101399.81
2023-05-19T02:56:31.976Z,101403.13
2023-05-19T02:57:35.932Z,101402.06
2023-05-19T02:58:37.477Z,101401.84
2023-05-19T02:59:39.911Z,101395.03
2023-05-19T03:00:41.425Z,101392.00
2023-05-19T03:01:43.941Z,101399.34
2023-05-19T03:02:47.012Z,101403.72
2023-05-19T03:03:49.707Z,101399.66
2023-05-19T03:04:51.590Z,101393.63
2023-05-19T03:05:54.479Z,101401.78
2023-05-19T03:06:56.084Z,101398.44
2023-05-19T03:07:58.688Z,101398.13
2023-05-19T03:09:00.256Z,101394.94
2023-05-19T03:10:04.004Z,101399.28
2023-05-19T03:11:05.849Z,101385.34
2023-05-19T03:12:08.536Z,101388.94
2023-05-19T03:13:10.036Z,101389.50
2023-05-19T03:14:13.712Z,101383.47
2023-05-19T03:15:16.409Z,101393.34
2023-05-19T03:16:19.077Z,101394.72
2023-05-19T03:17:20.801Z,101396.09
2023-05-19T03:18:25.234Z,101391.16
2023-05-19T03:19:27.593Z,101395.25
2023-05-19T03:20:30.972Z,101396.66
2023-05-19T03:21:34.457Z,101387.81
2023-05-19T03:22:36.914Z,101393.56
2023-05-19T03:23:38.401Z,101385.88
2023-05-19T03:24:40.826Z,101389.41
2023-05-19T03:25:42.440Z,101388.06
2023-05-19T03:26:45.019Z,101385.47
2023-05-19T03:27:46.552Z,101393.94
2023-05-19T03:28:49.118Z,101391.34
2023-05-19T03:29:51.248Z,101395.56
2023-05-19T03:30:53.759Z,101391.91
2023-05-19T03:31:55.430Z,101392.28
2023-05-19T03:32:58.007Z,101392.06
2023-05-19T03:34:00.952Z,101391.16
2023-05-19T03:35:03.420Z,101392.84
2023-05-19T03:36:05.837Z,101390.84
2023-05-19T03:37:08.261Z,101390.66
2023-05-19T03:38:09.811Z,101393.75
2023-05-19T03:39:12.558Z,101396.25
2023-05-19T03:40:14.127Z,101396.06
2023-05-19T03:41:16.909Z,101398.13
2023-05-19T03:42:18.469Z,101399.38
2023-05-19T03:43:20.921Z,101397.84
2023-05-19T03:44:22.436Z,101398.72
2023-05-19T03:45:24.922Z,101399.94
2023-05-19T03:46:26.637Z,101400.75
2023-05-19T03:47:29.222Z,101402.72
2023-05-19T03:48:30.791Z,101398.72
2023-05-19T03:49:34.719Z,101406.91
2023-05-19T03:50:37.961Z,101403.22
2023-05-19T03:51:41.037Z,101404.91
2023-05-19T03:52:45.528Z,101404.91
2023-05-19T03:53:48.696Z,101401.78
2023-05-19T03:54:51.257Z,101403.75
2023-05-19T03:55:55.456Z,101406.13
2023-05-19T03:56:57.072Z,101411.09
2023-05-19T03:57:59.588Z,101410.34
2023-05-19T03:59:01.101Z,101416.97
2023-05-19T04:00:04.093Z,101406.28
2023-05-19T04:01:05.687Z,101410.16
2023-05-19T04:02:08.389Z,101412.72
2023-05-19T04:03:10.262Z,101412.22
2023-05-19T04:04:12.918Z,101415.81
2023-05-19T04:05:16.045Z,101415.63
2023-05-19T04:06:19.083Z,101407.56
2023-05-19T04:07:20.803Z,101406.84
2023-05-19T04:08:23.274Z,101411.16
2023-05-19T04:09:24.798Z,101410.09
2023-05-19T04:10:27.241Z,101411.66
2023-05-19T04:11:28.737Z,101410.59
2023-05-19T04:12:31.917Z,101410.63
2023-05-19T04:13:34.039Z,101411.09
2023-05-19T04:14:36.450Z,101411.09
2023-05-19T04:15:38.030Z,101419.19
2023-05-19T04:16:41.667Z,101408.81
2023-05-19T04:17:43.314Z,101409.09
2023-05-19T04:18:46.439Z,101409.78
2023-05-19T04:19:48.115Z,101408.38
2023-05-19T04:20:52.098Z,101399.47
2023-05-19T04:21:53.598Z,101412.22
2023-05-19T04:22:56.013Z,101407.94
2023-05-19T04:23:59.153Z,101402.78
2023-05-19T04:25:01.801Z,101409.25
2023-05-19T04:26:03.822Z,101404.44
2023-05-19T04:27:12.115Z,101409.50
2023-05-19T04:28:13.715Z,101409.44
2023-05-19T04:29:17.977Z,101408.38
2023-05-19T04:30:22.485Z,101407.84
2023-05-19T04:31:26.134Z,101414.63
2023-05-19T04:32:29.275Z,101411.41
2023-05-19T04:33:33.921Z,101411.53
2023-05-19T04:34:35.488Z,101413.56
2023-05-19T04:35:39.643Z,101424.56
2023-05-19T04:36:42.546Z,101420.50
2023-05-19T04:37:45.901Z,101413.50
2023-05-19T04:38:47.833Z,101417.19
2023-05-19T04:39:50.365Z,101423.94
2023-05-19T04:40:52.006Z,101416.72
2023-05-19T04:41:55.003Z,101417.66
2023-05-19T04:42:57.173Z,101417.91
2023-05-19T04:43:59.618Z,101411.25
2023-05-19T04:45:01.145Z,101411.31
2023-05-19T04:46:06.118Z,101411.09
2023-05-19T04:47:08.840Z,101411.41
2023-05-19T04:48:12.219Z,101412.06
2023-05-19T04:49:14.464Z,101410.09
2023-05-19T04:50:17.259Z,101413.69
2023-05-19T04:51:18.829Z,101418.09
2023-05-19T04:52:22.788Z,101415.13
2023-05-19T04:53:25.630Z,101417.91
2023-05-19T04:54:28.578Z,101413.41
2023-05-19T04:55:30.207Z,101414.63
2023-05-19T04:56:32.642Z,101419.44
2023-05-19T04:57:34.196Z,101420.66
2023-05-19T04:58:39.105Z,101415.94
2023-05-19T04:59:41.603Z,101419.50
2023-05-19T05:00:44.069Z,101421.84
2023-05-19T05:01:45.603Z,101423.44
2023-05-19T05:02:49.063Z,101426.09
2023-05-19T05:03:50.774Z,101428.34
2023-05-19T05:04:54.469Z,101417.31
2023-05-19T05:05:56.712Z,101424.44
2023-05-19T05:06:59.259Z,101418.44
2023-05-19T05:08:03.111Z,101425.28
2023-05-19T05:09:05.603Z,101418.31
2023-05-19T05:10:08.394Z,101421.44
2023-05-19T05:11:11.735Z,101421.69
2023-05-19T05:12:14.960Z,101417.88
2023-05-19T05:13:17.917Z,101419.63
2023-05-19T05:14:19.915Z,101428.91
2023-05-19T05:15:24.224Z,101422.25
2023-05-19T05:16:26.825Z,101417.41
2023-05-19T05:17:29.769Z,101420.59
2023-05-19T05:18:31.816Z,101415.94
2023-05-19T05:19:35.116Z,101425.75
2023-05-19T05:20:37.388Z,101429.59
2023-05-19T05:21:41.465Z,101421.84
2023-05-19T05:22:43.523Z,101429.25
2023-05-19T05:23:47.866Z,101421.28
2023-05-19T05:24:49.920Z,101420.88
2023-05-19T05:25:52.995Z,101421.72
2023-05-19T05:26:54.524Z,101423.44
2023-05-19T05:27:58.874Z,101428.38
2023-05-19T05:29:00.486Z,101427.06
2023-05-19T05:30:02.983Z,101428.41
2023-05-19T05:31:04.640Z,101426.22
2023-05-19T05:32:07.944Z,101428.44
2023-05-19T05:33:09.835Z,101426.22
2023-05-19T05:34:12.573Z,101426.78
2023-05-19T05:35:14.074Z,101428.44
2023-05-19T05:36:16.576Z,101427.91
2023-05-19T05:37:18.078Z,101417.47
2023-05-19T05:38:20.631Z,101428.16
2023-05-19T05:39:23.527Z,101425.88
2023-05-19T05:40:26.177Z,101416.63
2023-05-19T05:41:29.242Z,101425.69
2023-05-19T05:42:31.800Z,101422.38
2023-05-19T05:43:33.328Z,101419.41
2023-05-19T05:44:36.169Z,101424.63
2023-05-19T05:45:37.695Z,101419.44
2023-05-19T05:46:40.591Z,101423.53
2023-05-19T05:47:42.739Z,101425.72
2023-05-19T05:48:45.931Z,101424.91
2023-05-19T05:49:48.717Z,101432.78
2023-05-19T05:50:53.007Z,101424.88
2023-05-19T05:53:07.129Z,101427.63
2023-05-19T05:54:12.151Z,101429.47
2023-05-19T05:55:18.285Z,101427.03
2023-05-19T05:56:20.876Z,101435.22
2023-05-19T05:57:23.877Z,101425.47
2023-05-19T05:58:25.868Z,101428.25
2023-05-19T05:59:28.401Z,101436.19
2023-05-19T06:00:30.240Z,101426.59
2023-05-19T06:01:35.440Z,101428.47
2023-05-19T06:02:37.262Z,101420.22
2023-05-19T06:03:41.691Z,101430.91
2023-05-19T06:04:43.950Z,101423.22
2023-05-19T06:05:46.465Z,101432.88
2023-05-19T06:06:48.973Z,101428.22
2023-05-19T06:07:50.478Z,101427.38
2023-05-19T06:08:53.081Z,101426.50
2023-05-19T06:09:54.653Z,101429.25
2023-05-19T06:10:58.956Z,101434.44
2023-05-19T06:12:00.493Z,101437.72
2023-05-19T06:13:02.969Z,101435.78
2023-05-19T06:14:04.597Z,101425.56
2023-05-19T06:15:08.860Z,101423.41
2023-05-19T06:16:10.526Z,101428.63
2023-05-19T06:17:13.148Z,101432.81
2023-05-19T06:18:14.798Z,101432.88
2023-05-19T06:19:17.391Z,101434.22
2023-05-19T06:20:19.969Z,101433.19
2023-05-19T06:21:22.738Z,101429.34
2023-05-19T06:22:24.290Z,101428.25
2023-05-19T06:23:28.986Z,101434.78
2023-05-19T06:24:30.582Z,101428.47
2023-05-19T06:25:33.384Z,101429.53
2023-05-19T06:26:36.439Z,101427.03
2023-05-19T06:27:38.996Z,101430.31
2023-05-19T06:28:40.704Z,101431.69
2023-05-19T06:29:43.176Z,101433.91
2023-05-19T06:30:44.853Z,101436.63
2023-05-19T06:31:47.377Z,101432.47
2023-05-19T06:32:48.917Z,101431.63
2023-05-19T06:33:51.388Z,101437.94
2023-05-19T06:34:54.893Z,101444.59
2023-05-19T06:35:56.401Z,101433.28
2023-05-19T06:36:58.840Z,101442.38
2023-05-19T06:38:00.606Z,101440.22
2023-05-19T06:39:03.345Z,101442.09
2023-05-19T06:40:05.825Z,101444.84
2023-05-19T06:41:08.361Z,101435.53
2023-05-19T06:42:11.267Z,101430.00
2023-05-19T06:43:13.753Z,101433.00
2023-05-19T06:44:15.489Z,101440.47
2023-05-19T06:45:21.738Z,101433.81
2023-05-19T06:46:24.236Z,101429.13
2023-05-19T06:47:26.092Z,101433.50
2023-05-19T06:48:28.678Z,101429.63
2023-05-19T06:49:30.398Z,101436.50
2023-05-19T06:50:33.099Z,101441.28
2023-05-19T06:51:35.375Z,101428.66
2023-05-19T06:52:39.138Z,101430.03
2023-05-19T06:53:41.899Z,101432.50
2023-05-19T06:54:44.382Z,101425.31
2023-05-19T06:55:58.125Z,101435.50
2023-05-19T06:57:02.134Z,101420.63
2023-05-19T06:58:05.011Z,101424.34
2023-05-19T06:59:07.432Z,101425.69
2023-05-19T07:00:11.543Z,101432.22
2023-05-19T07:01:14.055Z,101419.28
2023-05-19T07:02:15.777Z,101423.94
2023-05-19T07:03:18.364Z,101426.75
2023-05-19T07:04:20.948Z,101414.13
2023-05-19T07:05:22.623Z,101422.78
2023-05-19T07:06:25.126Z,101416.91
2023-05-19T07:07:27.137Z,101419.13
2023-05-19T07:08:29.713Z,101417.97
2023-05-19T07:09:31.249Z,101414.94
2023-05-19T07:10:33.878Z,101420.09
2023-05-19T07:11:35.626Z,101419.44
2023-05-19T07:12:38.074Z,101417.25
2023-05-19T07:13:41.877Z,101414.69
2023-05-19T07:14:43.384Z,101418.66
2023-05-19T07:15:46.330Z,101409.22
2023-05-19T07:16:47.994Z,101420.78
2023-05-19T07:17:50.845Z,101415.13
2023-05-19T07:18:52.642Z,101419.28
2023-05-19T07:19:55.122Z,101409.47
2023-05-19T07:20:58.308Z,101413.78
2023-05-19T07:22:00.775Z,101402.78
2023-05-19T07:23:02.803Z,101411.91
2023-05-19T07:24:05.534Z,101415.91
2023-05-19T07:25:07.602Z,101410.94
2023-05-19T07:26:10.346Z,101409.47
2023-05-19T07:27:11.899Z,101405.31
2023-05-19T07:28:14.367Z,101403.53
2023-05-19T07:29:17.197Z,101404.72
2023-05-19T07:30:19.719Z,101394.94
2023-05-19T07:31:21.645Z,101407.66
2023-05-19T07:32:24.369Z,101407.91
2023-05-19T07:33:27.744Z,101407.34
2023-05-19T07:34:30.241Z,101405.81
2023-05-19T07:35:32.826Z,101406.53
2023-05-19T07:36:34.409Z,101408.00
2023-05-19T07:37:36.966Z,101408.41
2023-05-19T07:38:39.550Z,101405.94
2023-05-19T07:39:41.134Z,101402.66
2023-05-19T07:40:43.606Z,101407.66
2023-05-19T07:41:45.136Z,101406.59
2023-05-19T07:42:50.045Z,101404.94
2023-05-19T07:43:51.767Z,101402.66
2023-05-19T07:44:55.567Z,101398.97
2023-05-19T07:45:57.275Z,101400.03
2023-05-19T07:46:59.854Z,101397.44
2023-05-19T07:48:02.324Z,101401.34
2023-05-19T07:49:05.339Z,101392.03
2023-05-19T07:50:07.825Z,101394.59
2023-05-19T07:51:10.522Z,101387.59
2023-05-19T07:52:12.957Z,101389.72
2023-05-19T07:53:14.631Z,101393.78
2023-05-19T07:54:17.108Z,101395.72
2023-05-19T07:55:19.199Z,101395.84
2023-05-19T07:56:22.025Z,101396.16
2023-05-19T07:57:25.643Z,101401.34
2023-05-19T07:58:28.262Z,101391.91
2023-05-19T07:59:30.927Z,101395.72
2023-05-19T08:00:33.959Z,101403.97
2023-05-19T08:01:36.803Z,101392.56
2023-05-19T08:02:38.500Z,101393.88
2023-05-19T08:03:41.089Z,101391.47
2023-05-19T08:04:43.704Z,101394.69
2023-05-19T08:05:45.545Z,101394.56
2023-05-19T08:06:47.994Z,101393.41
2023-05-19T08:07:50.600Z,101386.69
2023-05-19T08:08:54.245Z,101395.94
2023-05-19T08:09:55.877Z,101397.91
2023-05-19T08:10:58.363Z,101388.84
2023-05-19T08:12:01.482Z,101398.69
2023-05-19T08:13:03.056Z,101395.38
2023-05-19T08:14:05.729Z,101394.09
2023-05-19T08:15:08.498Z,101401.88
2023-05-19T08:16:12.296Z,101389.53
2023-05-19T08:17:14.838Z,101395.19
2023-05-19T08:18:16.476Z,101390.78
2023-05-19T08:19:19.024Z,101394.97
2023-05-19T08:20:22.444Z,101391.03
2023-05-19T08:21:25.021Z,101396.88
2023-05-19T08:22:28.196Z,101394.25
2023-05-19T08:23:30.819Z,101391.06
2023-05-19T08:24:33.931Z,101391.91
2023-05-19T08:25:35.620Z,101388.44
2023-05-19T08:26:38.268Z,101389.69
2023-05-19T08:27:40.783Z,101380.16
2023-05-19T08:28:42.332Z,101389.50
2023-05-19T08:29:44.843Z,101387.91
2023-05-19T08:30:47.392Z,101386.41
2023-05-19T08:31:53.039Z,101392.59
2023-05-19T08:32:55.658Z,101386.13
2023-05-19T08:33:58.140Z,101384.06
2023-05-19T08:34:59.726Z,101382.28
2023-05-19T08:36:02.312Z,101379.09
2023-05-19T08:37:04.360Z,101381.28
2023-05-19T08:38:25.487Z,101381.56
2023-05-19T08:39:46.797Z,101379.50
2023-05-19T08:41:08.096Z,101369.88
2023-05-19T08:42:32.842Z,101383.78
2023-05-19T08:43:56.092Z,101376.13
2023-05-19T08:45:19.015Z,101373.03
2023-05-19T08:46:42.238Z,101366.06
2023-05-19T08:48:07.675Z,101371.63
2023-05-19T08:49:34.777Z,101368.47
2023-05-19T08:51:08.655Z,101370.03
2023-05-19T08:52:36.663Z,101367.41
2023-05-19T08:54:08.405Z,101360.94
2023-05-19T08:55:36.922Z,101362.78
2023-05-19T08:57:00.097Z,101357.13
2023-05-19T08:58:23.526Z,101353.25
2023-05-19T08:59:46.693Z,101345.94
2023-05-19T09:01:09.790Z,101355.25
2023-05-19T09:02:33.542Z,101357.47
2023-05-19T09:03:58.091Z,101348.25
2023-05-19T09:05:21.343Z,101341.53
2023-05-19T09:06:45.075Z,101339.22
2023-05-19T09:08:08.495Z,101338.59
2023-05-19T09:09:31.580Z,101341.69
2023-05-19T09:10:54.380Z,101348.00
2023-05-19T09:12:17.376Z,101350.75
2023-05-19T09:13:40.940Z,101352.19
2023-05-19T09:15:04.705Z,101342.97
2023-05-19T09:16:29.939Z,101354.72
2023-05-19T09:18:04.054Z,101340.41
2023-05-19T09:19:30.177Z,101336.44
2023-05-19T09:20:59.265Z,101344.03
2023-05-19T09:22:22.266Z,101338.25
2023-05-19T09:23:48.721Z,101342.06
2023-05-19T09:25:20.444Z,101342.50
2023-05-19T09:26:44.000Z,101346.56
2023-05-19T09:28:09.741Z,101345.66
2023-05-19T09:29:32.584Z,101343.06
2023-05-19T09:31:01.422Z,101339.59
2023-05-19T09:32:28.279Z,101342.19
2023-05-19T09:33:53.339Z,101338.47
2023-05-19T09:35:20.154Z,101343.44
2023-05-19T09:36:43.372Z,101340.41
2023-05-19T09:38:06.281Z,101335.06
2023-05-19T09:39:29.671Z,101331.16
2023-05-19T09:40:53.122Z,101324.97
2023-05-19T09:42:16.729Z,101326.88
2023-05-19T09:43:39.550Z,101321.81
2023-05-19T09:45:01.729Z,101335.38
2023-05-19T09:46:26.658Z,101322.88
2023-05-19T09:47:49.587Z,101322.16
2023-05-19T09:49:12.896Z,101314.03
2023-05-19T09:50:37.364Z,101321.78
2023-05-19T09:52:01.076Z,101324.50
2023-05-19T09:53:25.364Z,101322.06
2023-05-19T09:54:49.929Z,101318.22
2023-05-19T09:56:15.290Z,101327.03
2023-05-19T09:57:38.808Z,101313.81
2023-05-19T09:59:02.525Z,101317.56
2023-05-19T10:00:26.339Z,101320.34
2023-05-19T10:01:49.741Z,101307.28
2023-05-19T10:03:13.430Z,101314.25
2023-05-19T10:04:37.160Z,101305.50
2023-05-19T10:06:02.598Z,101303.06
2023-05-19T10:07:25.627Z,101312.63
2023-05-19T10:08:50.450Z,101311.72
2023-05-19T10:10:14.401Z,101301.47
2023-05-19T10:11:37.575Z,101318.94
2023-05-19T10:13:01.223Z,101303.06
2023-05-19T10:14:24.583Z,101308.16
2023-05-19T10:15:57.987Z,101311.63
2023-05-19T10:17:22.560Z,101313.00
2023-05-19T10:18:45.780Z,101306.06
2023-05-19T10:20:10.887Z,101303.25
2023-05-19T10:21:35.078Z,101314.94
2023-05-19T10:22:57.903Z,101303.81
2023-05-19T10:24:21.386Z,101297.81
2023-05-19T10:25:44.828Z,101301.69
2023-05-19T10:27:11.761Z,101297.50
2023-05-19T10:28:37.954Z,101299.16
2023-05-19T10:30:09.264Z,101296.31
2023-05-19T10:31:35.643Z,101299.22
2023-05-19T10:33:01.013Z,101300.47
2023-05-19T10:34:59.613Z,101300.53
2023-05-19T10:36:40.127Z,101297.94
2023-05-19T10:38:16.271Z,101294.63
2023-05-19T10:39:44.233Z,101297.63
2023-05-19T10:41:12.328Z,101298.13
2023-05-19T10:42:44.272Z,101293.31
2023-05-19T10:44:13.598Z,101295.41
2023-05-19T10:45:46.981Z,101291.75
2023-05-19T10:47:12.113Z,101287.22
2023-05-19T10:48:36.459Z,101290.56
2023-05-19T10:50:01.670Z,101294.88
2023-05-19T10:51:31.356Z,101294.19
2023-05-19T10:52:55.848Z,101291.72
2023-05-19T10:54:40.727Z,101286.34
2023-05-19T10:56:04.294Z,101296.09
2023-05-19T10:57:28.697Z,101287.25
2023-05-19T10:58:52.106Z,101286.72
2023-05-19T11:00:28.834Z,101281.78
2023-05-19T11:01:51.732Z,101286.78
2023-05-19T11:03:14.760Z,101275.47
2023-05-19T11:04:48.892Z,101280.06
2023-05-19T11:06:21.639Z,101272.47
2023-05-19T11:07:46.222Z,101272.50
2023-05-19T11:09:14.435Z,101264.81
2023-05-19T11:10:38.672Z,101271.81
2023-05-19T11:12:04.344Z,101276.94
2023-05-19T11:13:28.624Z,101260.78
2023-05-19T11:14:53.700Z,101273.16
2023-05-19T11:16:20.515Z,101274.03
2023-05-19T11:17:48.305Z,101273.84
2023-05-19T11:19:19.829Z,101277.13
2023-05-19T11:20:44.308Z,101275.81
2023-05-19T11:22:11.595Z,101269.94
2023-05-19T11:23:35.563Z,101275.66
2023-05-19T11:24:58.737Z,101267.91
2023-05-19T11:26:44.191Z,101265.94
2023-05-19T11:28:07.025Z,101268.66
2023-05-19T11:29:34.219Z,101259.25
2023-05-19T11:31:00.048Z,101265.88
2023-05-19T11:32:24.012Z,101262.06
2023-05-19T11:33:47.005Z,101265.81
2023-05-19T11:35:11.191Z,101254.72
2023-05-19T11:36:34.974Z,101258.53
2023-05-19T11:37:58.158Z,101262.19
2023-05-19T11:39:21.162Z,101257.47
2023-05-19T11:40:44.810Z,101251.03
2023-05-19T11:42:10.525Z,101255.56
2023-05-19T11:43:33.505Z,101249.72
2023-05-19T11:44:57.133Z,101261.13
2023-05-19T11:46:20.100Z,101250.50
2023-05-19T11:48:00.876Z,101249.72
2023-05-19T11:49:25.176Z,101243.78
2023-05-19T11:50:48.034Z,101252.81
2023-05-19T11:52:11.084Z,101248.69
2023-05-19T11:53:36.630Z,101250.72
2023-05-19T11:55:01.678Z,101258.53
2023-05-19T11:56:24.783Z,101251.34
2023-05-19T11:59:32.296Z,101235.59
2023-05-19T12:00:56.567Z,101237.50
2023-05-19T12:02:20.765Z,101241.88
2023-05-19T12:03:44.026Z,101223.44
2023-05-19T12:05:07.578Z,101224.41
2023-05-19T12:06:31.135Z,101241.88
2023-05-19T12:07:54.123Z,101241.00
2023-05-19T12:09:16.998Z,101228.50
2023-05-19T12:10:40.598Z,101224.78
2023-05-19T12:12:03.732Z,101229.88
2023-05-19T12:13:28.481Z,101228.94
2023-05-19T12:14:53.518Z,101230.72
2023-05-19T12:16:16.411Z,101231.97
2023-05-19T12:17:38.328Z,101232.06
2023-05-19T12:19:01.297Z,101226.25
2023-05-19T12:20:24.626Z,101223.34
2023-05-19T12:21:47.626Z,101220.13
2023-05-19T12:23:11.105Z,101222.88
2023-05-19T12:24:34.559Z,101219.59
2023-05-19T12:25:57.622Z,101214.59
2023-05-19T12:27:22.013Z,101209.25
2023-05-19T12:28:47.738Z,101218.84
2023-05-19T12:30:12.706Z,101219.38
2023-05-19T12:31:35.762Z,101219.59
2023-05-19T12:32:59.097Z,101213.41
2023-05-19T12:34:22.154Z,101221.69
2023-05-19T12:35:46.110Z,101222.13
2023-05-19T12:37:08.991Z,101211.25
2023-05-19T12:38:31.859Z,101210.63
2023-05-19T12:39:56.298Z,101205.03
2023-05-19T12:41:19.428Z,101212.19
2023-05-19T12:42:45.742Z,101209.66
2023-05-19T12:44:16.203Z,101210.25
2023-05-19T12:45:42.507Z,101201.78
2023-05-19T12:47:05.005Z,101191.13
2023-05-19T12:48:29.569Z,101196.81
2023-05-19T12:49:56.412Z,101198.03
2023-05-19T12:51:19.732Z,101191.00
2023-05-19T12:52:45.058Z,101199.97
2023-05-19T12:54:07.898Z,101192.53
2023-05-19T12:55:30.968Z,101188.22
2023-05-19T12:56:53.926Z,101184.94
2023-05-19T12:58:17.138Z,101182.16
2023-05-19T12:59:43.590Z,101196.34
2023-05-19T13:01:08.730Z,101198.84
2023-05-19T13:02:31.684Z,101190.44
2023-05-19T13:03:54.808Z,101194.91
2023-05-19T13:05:17.963Z,101187.06
2023-05-19T13:06:41.745Z,101196.19
2023-05-19T13:08:07.636Z,101196.00
2023-05-19T13:09:34.979Z,101192.84
2023-05-19T13:10:57.855Z,101196.72
2023-05-19T13:12:21.188Z,101191.53
2023-05-19T13:13:44.048Z,101189.72
2023-05-19T13:15:09.106Z,101187.28
2023-05-19T13:16:32.041Z,101187.50
2023-05-19T13:17:56.224Z,101191.22